sensor_id;sensor_type;location;lat;lon;timestamp;P1;durP1;ratioP1;P2;durP2;ratioP2
72394;SDS011;60384;48.152;11.614;2023-09-19T00:01:31;3.60;;;1.10;;
72394;SDS011;60384;48.152;11.614;2023-09-19T00:04:33;1.75;;;0.93;;
72394;SDS011;60384;48.152;11.614;2023-09-19T00:07:35;3.90;;;1.20;;
72394;SDS011;60384;48.152;11.614;2023-09-19T00:13:41;2.60;;;0.90;;
72394;SDS011;60384;48.152;11.614;2023-09-19T00:16:43;3.03;;;1.00;;
72394;SDS011;60384;48.152;11.614;2023-09-19T00:19:46;2.97;;;1.08;;
72394;SDS011;60384;48.152;11.614;2023-09-19T00:22:52;3.42;;;1.10;;
72394;SDS011;60384;48.152;11.614;2023-09-19T00:28:59;4.05;;;1.20;;
72394;SDS011;60384;48.152;11.614;2023-09-19T00:32:06;3.92;;;1.17;;
72394;SDS011;60384;48.152;11.614;2023-09-19T00:35:08;2.72;;;1.10;;
72394;SDS011;60384;48.152;11.614;2023-09-19T00:38:11;3.60;;;0.98;;
72394;SDS011;60384;48.152;11.614;2023-09-19T00:41:19;3.83;;;1.08;;
72394;SDS011;60384;48.152;11.614;2023-09-19T00:47:24;3.38;;;1.20;;
72394;SDS011;60384;48.152;11.614;2023-09-19T00:50:26;3.75;;;1.80;;
72394;SDS011;60384;48.152;11.614;2023-09-19T00:53:29;3.95;;;1.20;;
72394;SDS011;60384;48.152;11.614;2023-09-19T00:56:32;3.25;;;1.10;;
72394;SDS011;60384;48.152;11.614;2023-09-19T01:02:57;2.53;;;1.17;;
72394;SDS011;60384;48.152;11.614;2023-09-19T01:05:59;4.10;;;1.20;;
72394;SDS011;60384;48.152;11.614;2023-09-19T01:09:02;3.72;;;1.10;;
72394;SDS011;60384;48.152;11.614;2023-09-19T01:12:06;2.75;;;1.15;;
72394;SDS011;60384;48.152;11.614;2023-09-19T01:15:14;4.13;;;1.35;;
72394;SDS011;60384;48.152;11.614;2023-09-19T01:18:27;4.88;;;1.42;;
72394;SDS011;60384;48.152;11.614;2023-09-19T01:24:54;3.35;;;1.40;;
72394;SDS011;60384;48.152;11.614;2023-09-19T01:28:27;3.97;;;1.10;;
72394;SDS011;60384;48.152;11.614;2023-09-19T01:31:38;1.70;;;0.98;;
72394;SDS011;60384;48.152;11.614;2023-09-19T01:34:47;3.42;;;1.30;;
72394;SDS011;60384;48.152;11.614;2023-09-19T01:37:50;3.88;;;1.23;;
72394;SDS011;60384;48.152;11.614;2023-09-19T01:40:58;2.88;;;1.15;;
72394;SDS011;60384;48.152;11.614;2023-09-19T01:44:09;3.05;;;1.10;;
72394;SDS011;60384;48.152;11.614;2023-09-19T01:47:33;2.83;;;1.15;;
72394;SDS011;60384;48.152;11.614;2023-09-19T01:50:39;3.80;;;1.17;;
72394;SDS011;60384;48.152;11.614;2023-09-19T01:53:49;4.97;;;1.50;;
72394;SDS011;60384;48.152;11.614;2023-09-19T01:56:59;5.80;;;1.10;;
72394;SDS011;60384;48.152;11.614;2023-09-19T02:00:06;3.45;;;1.15;;
72394;SDS011;60384;48.152;11.614;2023-09-19T02:03:16;3.17;;;1.10;;
72394;SDS011;60384;48.152;11.614;2023-09-19T02:06:18;3.13;;;1.30;;
72394;SDS011;60384;48.152;11.614;2023-09-19T02:09:21;4.15;;;1.20;;
72394;SDS011;60384;48.152;11.614;2023-09-19T02:12:25;2.38;;;1.02;;
72394;SDS011;60384;48.152;11.614;2023-09-19T02:15:27;2.63;;;1.00;;
72394;SDS011;60384;48.152;11.614;2023-09-19T02:18:30;2.53;;;0.90;;
72394;SDS011;60384;48.152;11.614;2023-09-19T02:21:35;2.05;;;0.90;;
72394;SDS011;60384;48.152;11.614;2023-09-19T02:24:37;2.88;;;1.15;;
72394;SDS011;60384;48.152;11.614;2023-09-19T02:27:39;2.42;;;0.98;;
72394;SDS011;60384;48.152;11.614;2023-09-19T02:30:42;3.72;;;1.20;;
72394;SDS011;60384;48.152;11.614;2023-09-19T02:33:45;3.15;;;1.67;;
72394;SDS011;60384;48.152;11.614;2023-09-19T02:36:48;3.58;;;1.30;;
72394;SDS011;60384;48.152;11.614;2023-09-19T02:39:50;2.75;;;1.00;;
72394;SDS011;60384;48.152;11.614;2023-09-19T02:45:57;3.00;;;1.02;;
72394;SDS011;60384;48.152;11.614;2023-09-19T02:49:00;3.65;;;1.20;;
72394;SDS011;60384;48.152;11.614;2023-09-19T02:52:03;4.22;;;1.13;;
72394;SDS011;60384;48.152;11.614;2023-09-19T02:55:07;4.43;;;1.00;;
72394;SDS011;60384;48.152;11.614;2023-09-19T03:04:16;1.90;;;1.02;;
72394;SDS011;60384;48.152;11.614;2023-09-19T03:07:21;2.97;;;1.20;;
72394;SDS011;60384;48.152;11.614;2023-09-19T03:13:26;2.30;;;1.10;;
72394;SDS011;60384;48.152;11.614;2023-09-19T03:16:27;5.15;;;1.25;;
72394;SDS011;60384;48.152;11.614;2023-09-19T03:19:34;2.78;;;1.20;;
72394;SDS011;60384;48.152;11.614;2023-09-19T03:22:38;4.57;;;1.08;;
72394;SDS011;60384;48.152;11.614;2023-09-19T03:25:40;4.07;;;1.30;;
72394;SDS011;60384;48.152;11.614;2023-09-19T03:28:42;3.75;;;1.30;;
72394;SDS011;60384;48.152;11.614;2023-09-19T03:31:47;3.20;;;1.15;;
72394;SDS011;60384;48.152;11.614;2023-09-19T03:37:52;4.93;;;1.48;;
72394;SDS011;60384;48.152;11.614;2023-09-19T03:43:56;3.03;;;1.00;;
72394;SDS011;60384;48.152;11.614;2023-09-19T03:46:58;2.63;;;1.15;;
72394;SDS011;60384;48.152;11.614;2023-09-19T03:50:03;2.67;;;1.02;;
72394;SDS011;60384;48.152;11.614;2023-09-19T03:53:05;4.65;;;1.38;;
72394;SDS011;60384;48.152;11.614;2023-09-19T03:56:07;2.92;;;1.10;;
72394;SDS011;60384;48.152;11.614;2023-09-19T03:59:10;1.65;;;1.00;;
72394;SDS011;60384;48.152;11.614;2023-09-19T04:05:25;3.40;;;1.08;;
72394;SDS011;60384;48.152;11.614;2023-09-19T04:08:27;2.28;;;1.00;;
72394;SDS011;60384;48.152;11.614;2023-09-19T04:11:29;3.72;;;1.10;;
72394;SDS011;60384;48.152;11.614;2023-09-19T04:14:31;3.17;;;1.27;;
72394;SDS011;60384;48.152;11.614;2023-09-19T04:17:33;2.55;;;1.20;;
72394;SDS011;60384;48.152;11.614;2023-09-19T04:20:37;3.08;;;1.13;;
72394;SDS011;60384;48.152;11.614;2023-09-19T04:23:39;3.75;;;1.30;;
72394;SDS011;60384;48.152;11.614;2023-09-19T04:26:40;2.00;;;1.02;;
72394;SDS011;60384;48.152;11.614;2023-09-19T04:29:43;4.32;;;1.27;;
72394;SDS011;60384;48.152;11.614;2023-09-19T04:32:46;3.00;;;1.00;;
72394;SDS011;60384;48.152;11.614;2023-09-19T04:35:52;2.85;;;1.30;;
72394;SDS011;60384;48.152;11.614;2023-09-19T04:38:54;2.63;;;1.08;;
72394;SDS011;60384;48.152;11.614;2023-09-19T04:44:58;2.72;;;1.20;;
72394;SDS011;60384;48.152;11.614;2023-09-19T04:48:01;4.57;;;1.20;;
72394;SDS011;60384;48.152;11.614;2023-09-19T04:51:05;3.03;;;1.30;;
72394;SDS011;60384;48.152;11.614;2023-09-19T04:54:07;2.78;;;0.85;;
72394;SDS011;60384;48.152;11.614;2023-09-19T04:57:10;4.00;;;1.50;;
72394;SDS011;60384;48.152;11.614;2023-09-19T05:00:13;2.70;;;1.02;;
72394;SDS011;60384;48.152;11.614;2023-09-19T05:03:17;2.67;;;0.98;;
72394;SDS011;60384;48.152;11.614;2023-09-19T05:06:22;3.35;;;1.20;;
72394;SDS011;60384;48.152;11.614;2023-09-19T05:09:24;2.90;;;1.50;;
72394;SDS011;60384;48.152;11.614;2023-09-19T05:12:33;4.20;;;1.10;;
72394;SDS011;60384;48.152;11.614;2023-09-19T05:15:36;3.85;;;1.15;;
72394;SDS011;60384;48.152;11.614;2023-09-19T05:18:38;3.22;;;1.00;;
72394;SDS011;60384;48.152;11.614;2023-09-19T05:21:41;2.60;;;1.08;;
72394;SDS011;60384;48.152;11.614;2023-09-19T05:24:43;4.10;;;1.10;;
72394;SDS011;60384;48.152;11.614;2023-09-19T05:27:48;3.58;;;1.30;;
72394;SDS011;60384;48.152;11.614;2023-09-19T05:30:51;4.60;;;1.10;;
72394;SDS011;60384;48.152;11.614;2023-09-19T05:36:57;3.00;;;1.27;;
72394;SDS011;60384;48.152;11.614;2023-09-19T05:39:59;1.92;;;1.00;;
72394;SDS011;60384;48.152;11.614;2023-09-19T05:43:00;2.72;;;1.13;;
72394;SDS011;60384;48.152;11.614;2023-09-19T05:46:03;2.55;;;0.82;;
72394;SDS011;60384;48.152;11.614;2023-09-19T05:49:05;3.83;;;1.00;;
72394;SDS011;60384;48.152;11.614;2023-09-19T05:52:09;4.78;;;1.20;;
72394;SDS011;60384;48.152;11.614;2023-09-19T05:55:10;2.03;;;1.00;;
72394;SDS011;60384;48.152;11.614;2023-09-19T05:58:12;3.20;;;1.17;;
72394;SDS011;60384;48.152;11.614;2023-09-19T06:01:15;1.90;;;0.77;;
72394;SDS011;60384;48.152;11.614;2023-09-19T06:04:17;3.63;;;1.35;;
72394;SDS011;60384;48.152;11.614;2023-09-19T06:07:21;2.25;;;1.15;;
72394;SDS011;60384;48.152;11.614;2023-09-19T06:10:26;2.38;;;1.08;;
72394;SDS011;60384;48.152;11.614;2023-09-19T06:13:29;3.80;;;1.30;;
72394;SDS011;60384;48.152;11.614;2023-09-19T06:16:33;3.33;;;1.15;;
72394;SDS011;60384;48.152;11.614;2023-09-19T06:19:35;2.22;;;1.08;;
72394;SDS011;60384;48.152;11.614;2023-09-19T06:22:38;3.22;;;1.00;;
72394;SDS011;60384;48.152;11.614;2023-09-19T06:25:42;2.47;;;1.05;;
72394;SDS011;60384;48.152;11.614;2023-09-19T06:28:44;3.40;;;1.20;;
72394;SDS011;60384;48.152;11.614;2023-09-19T06:31:46;2.63;;;1.00;;
72394;SDS011;60384;48.152;11.614;2023-09-19T06:37:56;2.83;;;0.90;;
72394;SDS011;60384;48.152;11.614;2023-09-19T06:40:58;3.13;;;1.20;;
72394;SDS011;60384;48.152;11.614;2023-09-19T06:44:00;1.95;;;0.88;;
72394;SDS011;60384;48.152;11.614;2023-09-19T06:47:02;4.63;;;1.10;;
72394;SDS011;60384;48.152;11.614;2023-09-19T06:50:05;2.47;;;1.00;;
72394;SDS011;60384;48.152;11.614;2023-09-19T06:53:14;3.00;;;1.10;;
72394;SDS011;60384;48.152;11.614;2023-09-19T06:56:16;3.13;;;1.10;;
72394;SDS011;60384;48.152;11.614;2023-09-19T07:02:20;6.68;;;1.48;;
72394;SDS011;60384;48.152;11.614;2023-09-19T07:05:22;3.28;;;1.10;;
72394;SDS011;60384;48.152;11.614;2023-09-19T07:08:26;2.15;;;1.00;;
72394;SDS011;60384;48.152;11.614;2023-09-19T07:11:28;2.58;;;1.00;;
72394;SDS011;60384;48.152;11.614;2023-09-19T07:14:31;2.67;;;1.08;;
72394;SDS011;60384;48.152;11.614;2023-09-19T07:17:32;2.80;;;1.10;;
72394;SDS011;60384;48.152;11.614;2023-09-19T07:20:35;3.22;;;1.05;;
72394;SDS011;60384;48.152;11.614;2023-09-19T07:26:40;1.30;;;0.75;;
72394;SDS011;60384;48.152;11.614;2023-09-19T07:29:42;3.30;;;1.17;;
72394;SDS011;60384;48.152;11.614;2023-09-19T07:32:45;3.50;;;0.90;;
72394;SDS011;60384;48.152;11.614;2023-09-19T07:35:46;2.47;;;0.93;;
72394;SDS011;60384;48.152;11.614;2023-09-19T07:38:50;4.93;;;1.10;;
72394;SDS011;60384;48.152;11.614;2023-09-19T07:41:52;3.03;;;0.90;;
72394;SDS011;60384;48.152;11.614;2023-09-19T07:44:54;2.50;;;0.90;;
72394;SDS011;60384;48.152;11.614;2023-09-19T07:47:56;2.00;;;0.90;;
72394;SDS011;60384;48.152;11.614;2023-09-19T07:51:01;4.10;;;1.20;;
72394;SDS011;60384;48.152;11.614;2023-09-19T07:54:05;5.28;;;1.40;;
72394;SDS011;60384;48.152;11.614;2023-09-19T07:57:08;3.45;;;1.20;;
72394;SDS011;60384;48.152;11.614;2023-09-19T08:00:10;2.03;;;0.80;;
72394;SDS011;60384;48.152;11.614;2023-09-19T08:03:13;2.10;;;0.93;;
72394;SDS011;60384;48.152;11.614;2023-09-19T08:06:15;4.90;;;1.27;;
72394;SDS011;60384;48.152;11.614;2023-09-19T08:09:18;3.15;;;1.10;;
72394;SDS011;60384;48.152;11.614;2023-09-19T08:12:21;3.03;;;0.88;;
72394;SDS011;60384;48.152;11.614;2023-09-19T08:15:24;2.97;;;0.90;;
72394;SDS011;60384;48.152;11.614;2023-09-19T08:18:26;2.15;;;0.80;;
72394;SDS011;60384;48.152;11.614;2023-09-19T08:21:30;2.75;;;1.00;;
72394;SDS011;60384;48.152;11.614;2023-09-19T08:24:33;1.73;;;0.95;;
72394;SDS011;60384;48.152;11.614;2023-09-19T08:27:35;3.90;;;1.10;;
72394;SDS011;60384;48.152;11.614;2023-09-19T08:30:37;2.63;;;0.80;;
72394;SDS011;60384;48.152;11.614;2023-09-19T08:33:40;1.85;;;0.70;;
72394;SDS011;60384;48.152;11.614;2023-09-19T08:39:47;2.15;;;0.80;;
72394;SDS011;60384;48.152;11.614;2023-09-19T08:42:49;3.17;;;1.02;;
72394;SDS011;60384;48.152;11.614;2023-09-19T08:45:52;2.67;;;1.05;;
72394;SDS011;60384;48.152;11.614;2023-09-19T08:49:02;1.60;;;0.93;;
72394;SDS011;60384;48.152;11.614;2023-09-19T08:52:09;2.85;;;1.00;;
72394;SDS011;60384;48.152;11.614;2023-09-19T08:55:19;1.70;;;0.73;;
72394;SDS011;60384;48.152;11.614;2023-09-19T08:58:22;2.17;;;0.88;;
72394;SDS011;60384;48.152;11.614;2023-09-19T09:01:30;1.88;;;0.80;;
72394;SDS011;60384;48.152;11.614;2023-09-19T09:04:33;2.83;;;1.10;;
72394;SDS011;60384;48.152;11.614;2023-09-19T09:07:35;5.07;;;1.23;;
72394;SDS011;60384;48.152;11.614;2023-09-19T09:10:40;2.40;;;1.00;;
72394;SDS011;60384;48.152;11.614;2023-09-19T09:13:42;1.95;;;0.90;;
72394;SDS011;60384;48.152;11.614;2023-09-19T09:16:45;2.20;;;0.80;;
72394;SDS011;60384;48.152;11.614;2023-09-19T09:19:49;2.20;;;0.80;;
72394;SDS011;60384;48.152;11.614;2023-09-19T09:22:52;2.88;;;0.95;;
72394;SDS011;60384;48.152;11.614;2023-09-19T09:25:56;1.90;;;0.85;;
72394;SDS011;60384;48.152;11.614;2023-09-19T09:28:59;1.83;;;0.65;;
72394;SDS011;60384;48.152;11.614;2023-09-19T09:35:19;2.55;;;1.00;;
72394;SDS011;60384;48.152;11.614;2023-09-19T09:38:22;3.13;;;0.93;;
72394;SDS011;60384;48.152;11.614;2023-09-19T09:41:36;4.15;;;0.90;;
72394;SDS011;60384;48.152;11.614;2023-09-19T09:44:40;1.38;;;0.80;;
72394;SDS011;60384;48.152;11.614;2023-09-19T09:47:42;2.88;;;0.73;;
72394;SDS011;60384;48.152;11.614;2023-09-19T09:50:50;4.43;;;0.90;;
72394;SDS011;60384;48.152;11.614;2023-09-19T09:54:09;2.35;;;1.02;;
72394;SDS011;60384;48.152;11.614;2023-09-19T09:57:15;2.85;;;0.80;;
72394;SDS011;60384;48.152;11.614;2023-09-19T10:00:18;1.90;;;0.90;;
72394;SDS011;60384;48.152;11.614;2023-09-19T10:03:21;0.93;;;0.70;;
72394;SDS011;60384;48.152;11.614;2023-09-19T10:06:23;2.28;;;0.90;;
72394;SDS011;60384;48.152;11.614;2023-09-19T10:09:28;2.65;;;0.90;;
72394;SDS011;60384;48.152;11.614;2023-09-19T10:12:41;2.47;;;1.02;;
72394;SDS011;60384;48.152;11.614;2023-09-19T10:15:47;3.13;;;0.98;;
72394;SDS011;60384;48.152;11.614;2023-09-19T10:18:51;3.08;;;1.10;;
72394;SDS011;60384;48.152;11.614;2023-09-19T10:21:58;3.53;;;1.20;;
72394;SDS011;60384;48.152;11.614;2023-09-19T10:25:03;2.35;;;1.10;;
72394;SDS011;60384;48.152;11.614;2023-09-19T10:28:11;2.67;;;1.05;;
72394;SDS011;60384;48.152;11.614;2023-09-19T10:31:14;3.63;;;1.20;;
72394;SDS011;60384;48.152;11.614;2023-09-19T10:34:21;4.07;;;1.20;;
72394;SDS011;60384;48.152;11.614;2023-09-19T10:37:24;3.08;;;1.00;;
72394;SDS011;60384;48.152;11.614;2023-09-19T10:40:28;2.90;;;1.10;;
72394;SDS011;60384;48.152;11.614;2023-09-19T10:43:33;4.50;;;1.25;;
72394;SDS011;60384;48.152;11.614;2023-09-19T10:46:38;3.60;;;0.98;;
72394;SDS011;60384;48.152;11.614;2023-09-19T10:49:43;2.35;;;1.10;;
72394;SDS011;60384;48.152;11.614;2023-09-19T10:52:46;3.15;;;0.98;;
72394;SDS011;60384;48.152;11.614;2023-09-19T10:55:52;4.40;;;1.30;;
72394;SDS011;60384;48.152;11.614;2023-09-19T10:59:08;2.70;;;0.98;;
72394;SDS011;60384;48.152;11.614;2023-09-19T11:02:16;4.78;;;1.00;;
72394;SDS011;60384;48.152;11.614;2023-09-19T11:05:19;1.08;;;0.60;;
72394;SDS011;60384;48.152;11.614;2023-09-19T11:08:21;3.00;;;1.00;;
72394;SDS011;60384;48.152;11.614;2023-09-19T11:11:39;3.05;;;1.10;;
72394;SDS011;60384;48.152;11.614;2023-09-19T11:14:43;2.10;;;1.10;;
72394;SDS011;60384;48.152;11.614;2023-09-19T11:17:45;3.30;;;1.00;;
72394;SDS011;60384;48.152;11.614;2023-09-19T11:20:48;2.75;;;1.27;;
72394;SDS011;60384;48.152;11.614;2023-09-19T11:27:26;2.25;;;1.02;;
72394;SDS011;60384;48.152;11.614;2023-09-19T11:30:31;3.28;;;1.20;;
72394;SDS011;60384;48.152;11.614;2023-09-19T11:33:34;2.28;;;0.90;;
72394;SDS011;60384;48.152;11.614;2023-09-19T11:36:39;2.00;;;0.90;;
72394;SDS011;60384;48.152;11.614;2023-09-19T11:39:43;2.20;;;0.80;;
72394;SDS011;60384;48.152;11.614;2023-09-19T11:43:28;1.70;;;0.80;;
72394;SDS011;60384;48.152;11.614;2023-09-19T11:46:51;2.30;;;0.82;;
72394;SDS011;60384;48.152;11.614;2023-09-19T11:49:54;2.03;;;1.10;;
72394;SDS011;60384;48.152;11.614;2023-09-19T11:52:59;2.17;;;1.08;;
72394;SDS011;60384;48.152;11.614;2023-09-19T11:56:04;1.63;;;0.57;;
72394;SDS011;60384;48.152;11.614;2023-09-19T11:59:10;3.25;;;1.13;;
72394;SDS011;60384;48.152;11.614;2023-09-19T12:02:27;2.15;;;0.90;;
72394;SDS011;60384;48.152;11.614;2023-09-19T12:05:40;1.92;;;0.93;;
72394;SDS011;60384;48.152;11.614;2023-09-19T12:08:42;1.92;;;0.70;;
72394;SDS011;60384;48.152;11.614;2023-09-19T12:11:47;4.20;;;1.00;;
72394;SDS011;60384;48.152;11.614;2023-09-19T12:14:50;3.05;;;0.90;;
72394;SDS011;60384;48.152;11.614;2023-09-19T12:17:53;1.60;;;0.90;;
72394;SDS011;60384;48.152;11.614;2023-09-19T12:20:56;2.30;;;1.00;;
72394;SDS011;60384;48.152;11.614;2023-09-19T12:23:59;3.03;;;0.95;;
72394;SDS011;60384;48.152;11.614;2023-09-19T12:27:11;1.55;;;0.90;;
72394;SDS011;60384;48.152;11.614;2023-09-19T12:30:14;1.35;;;0.80;;
72394;SDS011;60384;48.152;11.614;2023-09-19T12:33:19;1.15;;;0.70;;
72394;SDS011;60384;48.152;11.614;2023-09-19T12:36:25;2.30;;;0.70;;
72394;SDS011;60384;48.152;11.614;2023-09-19T12:39:30;2.20;;;1.00;;
72394;SDS011;60384;48.152;11.614;2023-09-19T12:42:32;2.00;;;0.98;;
72394;SDS011;60384;48.152;11.614;2023-09-19T12:45:36;2.40;;;0.80;;
72394;SDS011;60384;48.152;11.614;2023-09-19T12:48:40;1.38;;;0.90;;
72394;SDS011;60384;48.152;11.614;2023-09-19T12:51:45;1.58;;;0.90;;
72394;SDS011;60384;48.152;11.614;2023-09-19T12:54:48;2.20;;;0.82;;
72394;SDS011;60384;48.152;11.614;2023-09-19T12:57:58;2.17;;;1.08;;
72394;SDS011;60384;48.152;11.614;2023-09-19T13:01:02;2.75;;;1.05;;
72394;SDS011;60384;48.152;11.614;2023-09-19T13:04:17;3.05;;;0.90;;
72394;SDS011;60384;48.152;11.614;2023-09-19T13:10:59;2.05;;;0.88;;
72394;SDS011;60384;48.152;11.614;2023-09-19T13:14:13;2.50;;;0.95;;
72394;SDS011;60384;48.152;11.614;2023-09-19T13:17:16;2.03;;;1.00;;
72394;SDS011;60384;48.152;11.614;2023-09-19T13:20:24;4.75;;;1.20;;
72394;SDS011;60384;48.152;11.614;2023-09-19T13:23:29;3.10;;;1.00;;
72394;SDS011;60384;48.152;11.614;2023-09-19T13:26:31;2.38;;;0.85;;
72394;SDS011;60384;48.152;11.614;2023-09-19T13:29:33;2.17;;;1.10;;
72394;SDS011;60384;48.152;11.614;2023-09-19T13:32:35;2.33;;;1.10;;
72394;SDS011;60384;48.152;11.614;2023-09-19T13:35:39;2.45;;;1.00;;
72394;SDS011;60384;48.152;11.614;2023-09-19T13:38:41;3.70;;;1.10;;
72394;SDS011;60384;48.152;11.614;2023-09-19T13:41:44;2.05;;;1.00;;
72394;SDS011;60384;48.152;11.614;2023-09-19T13:44:47;2.55;;;0.82;;
72394;SDS011;60384;48.152;11.614;2023-09-19T13:47:49;1.38;;;0.90;;
72394;SDS011;60384;48.152;11.614;2023-09-19T13:50:53;3.10;;;1.00;;
72394;SDS011;60384;48.152;11.614;2023-09-19T13:53:56;2.60;;;1.10;;
72394;SDS011;60384;48.152;11.614;2023-09-19T13:56:58;2.50;;;1.20;;
72394;SDS011;60384;48.152;11.614;2023-09-19T14:00:01;2.80;;;1.20;;
72394;SDS011;60384;48.152;11.614;2023-09-19T14:03:12;2.90;;;1.00;;
72394;SDS011;60384;48.152;11.614;2023-09-19T14:06:15;2.85;;;1.02;;
72394;SDS011;60384;48.152;11.614;2023-09-19T14:09:17;2.67;;;1.10;;
72394;SDS011;60384;48.152;11.614;2023-09-19T14:12:19;1.95;;;1.00;;
72394;SDS011;60384;48.152;11.614;2023-09-19T14:15:21;2.92;;;1.00;;
72394;SDS011;60384;48.152;11.614;2023-09-19T14:18:29;1.40;;;0.82;;
72394;SDS011;60384;48.152;11.614;2023-09-19T14:21:32;2.28;;;1.17;;
72394;SDS011;60384;48.152;11.614;2023-09-19T14:24:36;1.95;;;0.73;;
72394;SDS011;60384;48.152;11.614;2023-09-19T14:27:38;2.40;;;0.85;;
72394;SDS011;60384;48.152;11.614;2023-09-19T14:30:40;2.00;;;1.13;;
72394;SDS011;60384;48.152;11.614;2023-09-19T14:33:42;3.00;;;1.40;;
72394;SDS011;60384;48.152;11.614;2023-09-19T14:36:45;1.55;;;0.70;;
72394;SDS011;60384;48.152;11.614;2023-09-19T14:39:48;1.83;;;1.05;;
72394;SDS011;60384;48.152;11.614;2023-09-19T14:42:50;4.50;;;1.00;;
72394;SDS011;60384;48.152;11.614;2023-09-19T14:45:53;2.78;;;1.00;;
72394;SDS011;60384;48.152;11.614;2023-09-19T14:48:55;1.80;;;0.90;;
72394;SDS011;60384;48.152;11.614;2023-09-19T14:52:01;1.90;;;1.00;;
72394;SDS011;60384;48.152;11.614;2023-09-19T14:55:04;1.50;;;0.70;;
72394;SDS011;60384;48.152;11.614;2023-09-19T14:58:09;2.15;;;0.80;;
72394;SDS011;60384;48.152;11.614;2023-09-19T15:01:11;3.72;;;1.00;;
72394;SDS011;60384;48.152;11.614;2023-09-19T15:04:14;1.73;;;1.00;;
72394;SDS011;60384;48.152;11.614;2023-09-19T15:07:17;1.60;;;0.98;;
72394;SDS011;60384;48.152;11.614;2023-09-19T15:10:19;2.10;;;1.08;;
72394;SDS011;60384;48.152;11.614;2023-09-19T15:13:22;2.05;;;1.02;;
72394;SDS011;60384;48.152;11.614;2023-09-19T15:16:29;1.70;;;0.80;;
72394;SDS011;60384;48.152;11.614;2023-09-19T15:19:30;2.78;;;1.10;;
72394;SDS011;60384;48.152;11.614;2023-09-19T15:22:34;2.22;;;0.98;;
72394;SDS011;60384;48.152;11.614;2023-09-19T15:25:36;2.63;;;0.90;;
72394;SDS011;60384;48.152;11.614;2023-09-19T15:28:38;1.60;;;0.70;;
72394;SDS011;60384;48.152;11.614;2023-09-19T15:31:40;3.35;;;1.00;;
72394;SDS011;60384;48.152;11.614;2023-09-19T15:34:42;3.50;;;1.20;;
72394;SDS011;60384;48.152;11.614;2023-09-19T15:37:45;1.60;;;0.88;;
72394;SDS011;60384;48.152;11.614;2023-09-19T15:40:47;2.13;;;1.00;;
72394;SDS011;60384;48.152;11.614;2023-09-19T15:43:49;1.30;;;0.88;;
72394;SDS011;60384;48.152;11.614;2023-09-19T15:46:52;2.90;;;1.00;;
72394;SDS011;60384;48.152;11.614;2023-09-19T15:49:54;3.15;;;0.90;;
72394;SDS011;60384;48.152;11.614;2023-09-19T15:52:57;1.63;;;0.80;;
72394;SDS011;60384;48.152;11.614;2023-09-19T15:56:00;2.63;;;0.98;;
72394;SDS011;60384;48.152;11.614;2023-09-19T15:59:07;2.40;;;0.77;;
72394;SDS011;60384;48.152;11.614;2023-09-19T16:02:12;2.55;;;0.90;;
72394;SDS011;60384;48.152;11.614;2023-09-19T16:05:14;2.35;;;1.00;;
72394;SDS011;60384;48.152;11.614;2023-09-19T16:08:17;1.30;;;0.80;;
72394;SDS011;60384;48.152;11.614;2023-09-19T16:11:19;1.48;;;0.60;;
72394;SDS011;60384;48.152;11.614;2023-09-19T16:14:21;1.63;;;0.88;;
72394;SDS011;60384;48.152;11.614;2023-09-19T16:17:24;1.73;;;0.80;;
72394;SDS011;60384;48.152;11.614;2023-09-19T16:20:27;3.08;;;0.90;;
72394;SDS011;60384;48.152;11.614;2023-09-19T16:23:31;2.95;;;1.13;;
72394;SDS011;60384;48.152;11.614;2023-09-19T16:26:33;2.42;;;1.00;;
72394;SDS011;60384;48.152;11.614;2023-09-19T16:29:35;1.73;;;0.90;;
72394;SDS011;60384;48.152;11.614;2023-09-19T16:32:37;3.28;;;1.15;;
72394;SDS011;60384;48.152;11.614;2023-09-19T16:35:38;3.83;;;1.10;;
72394;SDS011;60384;48.152;11.614;2023-09-19T16:38:45;3.25;;;1.20;;
72394;SDS011;60384;48.152;11.614;2023-09-19T16:41:48;2.55;;;1.00;;
72394;SDS011;60384;48.152;11.614;2023-09-19T16:47:51;4.18;;;1.15;;
72394;SDS011;60384;48.152;11.614;2023-09-19T16:50:59;2.97;;;1.00;;
72394;SDS011;60384;48.152;11.614;2023-09-19T16:54:04;3.47;;;1.17;;
72394;SDS011;60384;48.152;11.614;2023-09-19T16:57:06;4.28;;;1.40;;
72394;SDS011;60384;48.152;11.614;2023-09-19T17:03:10;2.53;;;1.20;;
72394;SDS011;60384;48.152;11.614;2023-09-19T17:06:13;3.90;;;1.10;;
72394;SDS011;60384;48.152;11.614;2023-09-19T17:09:17;2.80;;;0.93;;
72394;SDS011;60384;48.152;11.614;2023-09-19T17:12:22;3.45;;;1.30;;
72394;SDS011;60384;48.152;11.614;2023-09-19T17:15:24;1.70;;;0.90;;
72394;SDS011;60384;48.152;11.614;2023-09-19T17:18:27;4.50;;;1.50;;
72394;SDS011;60384;48.152;11.614;2023-09-19T17:21:29;4.75;;;1.40;;
72394;SDS011;60384;48.152;11.614;2023-09-19T17:24:33;3.75;;;1.40;;
72394;SDS011;60384;48.152;11.614;2023-09-19T17:27:35;2.20;;;1.00;;
72394;SDS011;60384;48.152;11.614;2023-09-19T17:30:37;2.88;;;1.20;;
72394;SDS011;60384;48.152;11.614;2023-09-19T17:33:39;4.35;;;1.30;;
72394;SDS011;60384;48.152;11.614;2023-09-19T17:36:43;3.55;;;1.20;;
72394;SDS011;60384;48.152;11.614;2023-09-19T17:39:47;3.10;;;1.30;;
72394;SDS011;60384;48.152;11.614;2023-09-19T17:42:51;4.25;;;1.40;;
72394;SDS011;60384;48.152;11.614;2023-09-19T17:45:53;6.57;;;1.70;;
72394;SDS011;60384;48.152;11.614;2023-09-19T17:51:59;3.38;;;1.50;;
72394;SDS011;60384;48.152;11.614;2023-09-19T17:55:06;2.95;;;1.50;;
72394;SDS011;60384;48.152;11.614;2023-09-19T17:58:09;3.53;;;1.42;;
72394;SDS011;60384;48.152;11.614;2023-09-19T18:04:13;6.50;;;1.60;;
72394;SDS011;60384;48.152;11.614;2023-09-19T18:07:15;4.20;;;1.40;;
72394;SDS011;60384;48.152;11.614;2023-09-19T18:10:18;2.90;;;1.38;;
72394;SDS011;60384;48.152;11.614;2023-09-19T18:13:20;3.30;;;1.48;;
72394;SDS011;60384;48.152;11.614;2023-09-19T18:16:22;3.63;;;1.60;;
72394;SDS011;60384;48.152;11.614;2023-09-19T18:19:24;3.08;;;1.33;;
72394;SDS011;60384;48.152;11.614;2023-09-19T18:22:27;5.55;;;1.63;;
72394;SDS011;60384;48.152;11.614;2023-09-19T18:28:33;4.18;;;1.60;;
72394;SDS011;60384;48.152;11.614;2023-09-19T18:31:36;5.88;;;1.52;;
72394;SDS011;60384;48.152;11.614;2023-09-19T18:37:41;3.28;;;1.45;;
72394;SDS011;60384;48.152;11.614;2023-09-19T18:43:46;4.30;;;1.45;;
72394;SDS011;60384;48.152;11.614;2023-09-19T18:49:49;5.00;;;2.22;;
72394;SDS011;60384;48.152;11.614;2023-09-19T18:52:51;3.97;;;1.50;;
72394;SDS011;60384;48.152;11.614;2023-09-19T18:56:02;4.38;;;1.58;;
72394;SDS011;60384;48.152;11.614;2023-09-19T18:59:06;4.97;;;1.83;;
72394;SDS011;60384;48.152;11.614;2023-09-19T19:02:08;4.50;;;1.80;;
72394;SDS011;60384;48.152;11.614;2023-09-19T19:05:11;5.00;;;1.70;;
72394;SDS011;60384;48.152;11.614;2023-09-19T19:08:16;4.95;;;1.80;;
72394;SDS011;60384;48.152;11.614;2023-09-19T19:11:20;3.97;;;1.63;;
72394;SDS011;60384;48.152;11.614;2023-09-19T19:14:23;3.33;;;1.58;;
72394;SDS011;60384;48.152;11.614;2023-09-19T19:17:25;3.75;;;1.80;;
72394;SDS011;60384;48.152;11.614;2023-09-19T19:23:28;4.82;;;1.75;;
72394;SDS011;60384;48.152;11.614;2023-09-19T19:26:32;4.95;;;1.83;;
72394;SDS011;60384;48.152;11.614;2023-09-19T19:29:35;4.15;;;1.58;;
72394;SDS011;60384;48.152;11.614;2023-09-19T19:32:37;5.93;;;1.98;;
72394;SDS011;60384;48.152;11.614;2023-09-19T19:38:42;3.60;;;1.60;;
72394;SDS011;60384;48.152;11.614;2023-09-19T19:41:57;4.93;;;1.90;;
72394;SDS011;60384;48.152;11.614;2023-09-19T19:44:59;5.18;;;1.90;;
72394;SDS011;60384;48.152;11.614;2023-09-19T19:48:01;5.05;;;1.80;;